Time;durP1;ratioP1;P1;durP2;ratioP2;P2;SDS_P1;SDS_P2;PMS_P1;PMS_P2;Temp;Humidity;BMP_temperature;BMP_pressure;BME280_temperature;BME280_humidity;BME280_pressure;Samples;Min_cycle;Max_cycle;Signal;HPM_P1;HPM_P2
2022/02/17 00:00:13;;;;;;;;;0.00;0.00;;;;;14.78;86.08;100515.13;5057414;28;45872;-76
2022/02/17 00:02:42;;;;;;;;;0.00;0.00;;;;;14.79;86.09;100517.66;5058853;28;45692;-77
2022/02/17 00:05:09;;;;;;;;;0.75;0.00;;;;;14.81;85.90;100521.03;5059462;28;45534;-77
2022/02/17 00:07:36;;;;;;;;;0.00;0.00;;;;;14.82;85.95;100514.78;5058728;28;45625;-76
2022/02/17 00:10:01;;;;;;;;;0.00;0.00;;;;;14.81;85.53;100506.97;5058092;28;47216;-77
2022/02/17 00:12:27;;;;;;;;;0.00;0.00;;;;;14.82;85.54;100516.59;5061825;28;45292;-77
2022/02/17 00:14:52;;;;;;;;;0.00;0.00;;;;;14.84;85.98;100501.50;5060651;28;45509;-77
2022/02/17 00:17:17;;;;;;;;;0.00;0.00;;;;;14.84;85.60;100489.09;5070327;28;55026;-77
2022/02/17 00:19:43;;;;;;;;;1.00;0.00;;;;;14.87;85.77;100507.41;5071841;28;45509;-77
2022/02/17 00:22:08;;;;;;;;;1.25;0.00;;;;;14.87;85.80;100502.13;5058094;28;48439;-76
2022/02/17 00:24:33;;;;;;;;;0.00;0.00;;;;;14.88;85.88;100503.00;5054827;28;45623;-76
2022/02/17 00:27:01;;;;;;;;;0.00;0.00;;;;;14.86;85.98;100500.41;5063621;27;45328;-77
2022/02/17 00:29:27;;;;;;;;;1.00;0.00;;;;;14.84;85.72;100512.91;5056987;28;45516;-77
2022/02/17 00:31:52;;;;;;;;;0.00;0.00;;;;;14.82;85.75;100506.84;5044088;28;45694;-77
2022/02/17 00:34:17;;;;;;;;;1.00;0.00;;;;;14.83;85.74;100521.81;5056943;28;45550;-77
2022/02/17 00:36:42;;;;;;;;;0.00;0.00;;;;;14.84;85.98;100525.28;5056868;28;55197;-76
2022/02/17 00:39:08;;;;;;;;;0.00;0.00;;;;;14.84;85.74;100528.78;5062684;28;46027;-76
2022/02/17 00:41:33;;;;;;;;;0.00;0.00;;;;;14.84;85.72;100515.56;5056496;28;45475;-77
2022/02/17 00:43:59;;;;;;;;;0.00;0.00;;;;;14.83;85.88;100531.53;5058204;28;45397;-77
2022/02/17 00:46:26;;;;;;;;;0.00;0.00;;;;;14.84;86.11;100533.22;5057100;28;45404;-76
2022/02/17 00:48:52;;;;;;;;;0.00;0.00;;;;;14.84;86.05;100534.06;5057121;28;46192;-77
2022/02/17 00:51:17;;;;;;;;;0.00;0.00;;;;;14.84;86.03;100557.03;5057024;28;45456;-76
2022/02/17 00:53:43;;;;;;;;;0.00;0.00;;;;;14.84;86.21;100565.81;5057035;28;45355;-76
2022/02/17 00:56:08;;;;;;;;;0.00;0.00;;;;;14.80;86.56;100579.34;5057090;28;45508;-76
2022/02/17 00:58:34;;;;;;;;;0.00;0.00;;;;;14.79;86.66;100580.28;5056863;28;45971;-76
2022/02/17 01:00:59;;;;;;;;;0.00;0.00;;;;;14.77;86.70;100572.47;5056620;28;45587;-77
2022/02/17 01:03:24;;;;;;;;;0.00;0.00;;;;;14.76;86.43;100589.25;5063544;28;45713;-76
2022/02/17 01:05:50;;;;;;;;;0.00;0.00;;;;;14.77;88.04;100588.34;5057253;28;45662;-77
2022/02/17 01:08:15;;;;;;;;;0.00;0.00;;;;;14.76;87.44;100591.91;5057029;28;47064;-76
2022/02/17 01:10:40;;;;;;;;;0.00;0.00;;;;;14.77;87.86;100590.09;5056573;28;45430;-76
2022/02/17 01:13:06;;;;;;;;;0.50;0.00;;;;;14.76;87.55;100605.13;5056754;28;45506;-76
2022/02/17 01:15:32;;;;;;;;;0.00;0.00;;;;;14.77;87.85;100611.25;5056658;28;45387;-77
2022/02/17 01:17:57;;;;;;;;;1.00;0.00;;;;;14.75;87.92;100598.16;5056917;28;46121;-76
2022/02/17 01:20:23;;;;;;;;;0.00;0.00;;;;;14.73;87.69;100597.41;5056785;28;45586;-77
2022/02/17 01:22:49;;;;;;;;;0.75;0.00;;;;;14.70;88.02;100592.28;5055564;28;45455;-76
2022/02/17 01:25:15;;;;;;;;;0.00;0.00;;;;;14.70;87.39;100575.56;5056493;28;49683;-77
2022/02/17 01:27:42;;;;;;;;;0.00;0.00;;;;;14.67;87.38;100591.63;5056443;28;46329;-76
2022/02/17 01:30:08;;;;;;;;;0.00;0.00;;;;;14.66;87.40;100598.72;5056228;28;45542;-77
2022/02/17 01:32:34;;;;;;;;;0.00;0.00;;;;;14.64;87.33;100589.19;5039665;28;45376;-77
2022/02/17 01:34:59;;;;;;;;;0.00;0.00;;;;;14.63;87.39;100598.91;5057494;28;45486;-76
2022/02/17 01:37:24;;;;;;;;;0.00;0.00;;;;;14.61;87.58;100621.94;5055782;28;53406;-77
2022/02/17 01:39:51;;;;;;;;;0.00;0.00;;;;;14.60;87.32;100646.69;5055596;28;45454;-76
2022/02/17 01:42:17;;;;;;;;;0.00;0.00;;;;;14.57;87.68;100653.03;5056841;28;45465;-76
2022/02/17 01:44:43;;;;;;;;;0.00;0.00;;;;;14.56;87.58;100650.47;5056420;28;45459;-77
2022/02/17 01:47:10;;;;;;;;;0.00;0.00;;;;;14.56;87.83;100664.56;5056986;28;46032;-76
2022/02/17 01:49:36;;;;;;;;;0.00;0.00;;;;;14.54;87.99;100662.94;5059021;28;45603;-76
2022/02/17 01:52:02;;;;;;;;;0.00;0.00;;;;;14.54;87.98;100679.66;5061252;28;45427;-76
2022/02/17 01:54:28;;;;;;;;;0.25;0.00;;;;;14.51;87.38;100657.84;5058162;28;45479;-77
2022/02/17 01:56:55;;;;;;;;;0.50;0.00;;;;;14.47;87.38;100651.91;5056319;28;46351;-76
2022/02/17 01:59:20;;;;;;;;;1.00;0.00;;;;;14.43;87.27;100652.13;5057548;28;45313;-77
2022/02/17 02:01:46;;;;;;;;;0.00;0.00;;;;;14.39;87.11;100677.91;5054021;28;45388;-76
2022/02/17 02:04:11;;;;;;;;;1.00;0.00;;;;;14.40;87.30;100684.88;5053819;28;45551;-76
2022/02/17 02:06:36;;;;;;;;;1.00;0.00;;;;;14.40;87.29;100669.03;5059887;28;46082;-76
2022/02/17 02:09:03;;;;;;;;;0.00;0.00;;;;;14.41;87.71;100681.31;5059107;28;45512;-77
2022/02/17 02:11:30;;;;;;;;;0.00;0.00;;;;;14.42;86.96;100684.81;5055753;28;45390;-77
2022/02/17 02:13:55;;;;;;;;;0.00;0.00;;;;;14.44;86.86;100670.53;5066772;28;45342;-77
2022/02/17 02:16:20;;;;;;;;;0.00;0.00;;;;;14.46;86.82;100692.47;5058482;27;47911;-77
2022/02/17 02:18:45;;;;;;;;;0.00;0.00;;;;;14.46;86.40;100696.88;5057263;28;47592;-78
2022/02/17 02:21:11;;;;;;;;;2.50;0.00;;;;;14.46;86.23;100700.41;5055568;28;45376;-76
2022/02/17 02:23:37;;;;;;;;;0.25;0.00;;;;;14.43;86.14;100692.66;5062016;28;45622;-77
2022/02/17 02:26:03;;;;;;;;;0.00;0.00;;;;;14.46;85.87;100694.25;5060510;28;46244;-77
2022/02/17 02:28:31;;;;;;;;;0.00;0.00;;;;;14.45;85.13;100680.16;5057808;28;45806;-77
2022/02/17 02:30:58;;;;;;;;;0.75;0.00;;;;;14.46;85.04;100699.53;5056501;28;45514;-76
2022/02/17 02:33:24;;;;;;;;;2.50;2.00;;;;;14.44;84.74;100704.06;5066016;28;45375;-77
2022/02/17 02:35:51;;;;;;;;;0.00;0.00;;;;;14.42;84.31;100692.75;5056869;28;45470;-76
2022/02/17 02:38:17;;;;;;;;;2.00;1.00;;;;;14.38;83.98;100693.88;5024230;28;46734;-76
2022/02/17 02:40:42;;;;;;;;;2.50;0.00;;;;;14.28;84.01;100698.84;5036359;28;45489;-76
2022/02/17 02:43:08;;;;;;;;;3.00;1.00;;;;;14.20;83.64;100712.53;5034225;28;45499;-76
2022/02/17 02:45:34;;;;;;;;;1.00;1.00;;;;;14.14;83.61;100712.00;5026268;28;45992;-77
2022/02/17 02:48:08;;;;;;;;;3.25;0.75;;;;;14.08;83.42;100719.34;5042947;28;45483;-76
2022/02/17 02:50:34;;;;;;;;;2.75;1.00;;;;;14.04;83.22;100719.59;5035433;28;45332;-76
2022/02/17 02:53:00;;;;;;;;;1.00;1.00;;;;;13.98;82.98;100722.59;5032856;28;45476;-77
2022/02/17 02:55:26;;;;;;;;;2.25;2.00;;;;;13.91;82.81;100711.53;5029335;28;45530;-76
2022/02/17 02:57:52;;;;;;;;;3.00;2.50;;;;;13.83;81.93;100740.19;5033763;28;47658;-75
2022/02/17 03:00:17;;;;;;;;;4.00;1.25;;;;;13.78;81.07;100723.72;5031713;28;45542;-77
2022/02/17 03:02:43;;;;;;;;;2.00;0.00;;;;;13.73;80.12;100713.47;5030778;28;45509;-76
2022/02/17 03:05:09;;;;;;;;;2.00;2.00;;;;;13.69;79.84;100717.19;5052181;28;45855;-76
2022/02/17 03:07:34;;;;;;;;;0.25;0.25;;;;;13.68;79.48;100725.22;5037984;28;45598;-76
2022/02/17 03:10:01;;;;;;;;;3.25;1.75;;;;;13.66;79.11;100711.22;5033134;28;45447;-76
2022/02/17 03:12:27;;;;;;;;;3.50;2.25;;;;;13.61;78.44;100748.44;5033244;28;45422;-76
2022/02/17 03:14:53;;;;;;;;;4.50;2.00;;;;;13.61;77.85;100729.13;5019578;28;45365;-76
2022/02/17 03:17:18;;;;;;;;;1.50;1.00;;;;;13.63;77.73;100743.97;5038721;28;45461;-77
2022/02/17 03:19:44;;;;;;;;;3.50;1.00;;;;;13.66;77.47;100738.47;5040103;28;45528;-77
2022/02/17 03:22:09;;;;;;;;;2.50;2.00;;;;;13.69;77.25;100742.75;5032870;28;45499;-77
2022/02/17 03:24:35;;;;;;;;;6.00;2.25;;;;;13.71;77.52;100747.00;5037680;28;46025;-76
2022/02/17 03:27:00;;;;;;;;;3.00;3.00;;;;;13.72;77.14;100740.78;5034115;28;45588;-76
2022/02/17 03:29:25;;;;;;;;;4.50;2.25;;;;;13.71;77.40;100746.16;5035880;28;45416;-77
2022/02/17 03:31:51;;;;;;;;;4.25;1.25;;;;;13.66;76.97;100742.91;5037347;28;45489;-77
2022/02/17 03:34:16;;;;;;;;;2.00;1.25;;;;;13.61;76.72;100744.97;5042525;28;45970;-76
2022/02/17 03:36:41;;;;;;;;;3.00;2.00;;;;;13.57;75.79;100750.44;5042708;28;52167;-77
2022/02/17 03:39:07;;;;;;;;;4.00;2.50;;;;;13.56;76.28;100753.13;5027049;28;45379;-77
2022/02/17 03:41:32;;;;;;;;;3.50;2.00;;;;;13.55;76.04;100762.84;5029089;28;45225;-76
2022/02/17 03:43:57;;;;;;;;;2.25;1.00;;;;;13.52;75.99;100763.03;5052526;28;45789;-77
2022/02/17 03:46:23;;;;;;;;;3.00;1.00;;;;;13.50;74.94;100775.44;5039404;28;45454;-76
2022/02/17 03:48:48;;;;;;;;;4.25;1.50;;;;;13.50;75.01;100769.31;5037589;28;45620;-76
2022/02/17 03:51:13;;;;;;;;;4.00;2.75;;;;;13.50;74.18;100783.38;5019900;28;45412;-76
2022/02/17 03:53:39;;;;;;;;;9.00;2.25;;;;;13.51;74.70;100765.72;5032704;28;46022;-76
2022/02/17 03:56:04;;;;;;;;;9.75;1.50;;;;;13.52;73.99;100770.06;5024965;28;55707;-76
2022/02/17 04:01:13;;;;;;;;;8.25;4.25;;;;;13.54;73.53;100795.47;5037917;28;45506;-76
2022/02/17 04:03:38;;;;;;;;;7.00;2.00;;;;;13.57;73.26;100797.97;5043696;28;55485;-76
2022/02/17 04:06:04;;;;;;;;;9.50;2.75;;;;;13.60;73.51;100806.63;5045055;28;45897;-76
2022/02/17 04:08:29;;;;;;;;;4.75;2.00;;;;;13.63;73.36;100815.25;5025627;28;45376;-76
2022/02/17 04:10:54;;;;;;;;;4.75;2.25;;;;;13.64;72.88;100811.66;5048306;28;45367;-76
2022/02/17 04:13:20;;;;;;;;;5.50;2.50;;;;;13.65;73.14;100817.81;5036862;28;46203;-76
2022/02/17 04:15:45;;;;;;;;;6.00;3.00;;;;;13.65;73.16;100829.22;5030992;28;45545;-76
2022/02/17 04:18:10;;;;;;;;;3.50;1.00;;;;;13.61;73.65;100825.03;5033485;28;45351;-76
2022/02/17 04:20:36;;;;;;;;;3.25;2.00;;;;;13.61;73.50;100835.59;5035632;28;45572;-76
2022/02/17 04:23:01;;;;;;;;;5.00;3.00;;;;;13.58;73.27;100841.91;5024935;28;46214;-76
2022/02/17 04:25:26;;;;;;;;;4.50;2.00;;;;;13.58;73.06;100862.19;5023272;28;45612;-76
2022/02/17 04:27:52;;;;;;;;;7.50;3.50;;;;;13.50;71.83;100824.75;5029781;28;45455;-74
2022/02/17 04:30:17;;;;;;;;;4.00;3.00;;;;;13.40;72.42;100834.94;5035467;28;45943;-76
2022/02/17 04:32:42;;;;;;;;;7.75;2.00;;;;;13.32;71.88;100843.28;5049930;28;45517;-76
2022/02/17 04:35:08;;;;;;;;;6.50;2.50;;;;;13.25;71.98;100838.41;5048987;28;50994;-76
2022/02/17 04:37:33;;;;;;;;;8.00;3.25;;;;;13.16;71.59;100858.19;5039114;28;45602;-74
2022/02/17 04:40:00;;;;;;;;;6.00;3.50;;;;;13.09;71.67;100846.22;5035114;28;45461;-76
2022/02/17 04:42:27;;;;;;;;;8.25;3.00;;;;;13.02;71.60;100852.75;5037798;28;46164;-76
2022/02/17 04:44:53;;;;;;;;;5.75;3.50;;;;;12.97;70.49;100886.44;5035446;28;45736;-76
2022/02/17 04:47:19;;;;;;;;;5.25;4.50;;;;;12.92;70.64;100894.56;5037510;28;45383;-76
2022/02/17 04:49:45;;;;;;;;;7.75;3.00;;;;;12.87;70.28;100906.28;5046735;28;45431;-76
2022/02/17 04:52:10;;;;;;;;;8.00;3.00;;;;;12.81;69.60;100894.25;5041921;28;46089;-76
2022/02/17 04:54:36;;;;;;;;;10.75;4.00;;;;;12.76;69.53;100906.81;5034836;28;46902;-76
2022/02/17 04:57:03;;;;;;;;;11.50;4.00;;;;;12.71;69.25;100908.84;5021192;28;45816;-76
2022/02/17 04:59:29;;;;;;;;;4.75;4.00;;;;;12.65;69.86;100919.69;5045212;28;45477;-74
2022/02/17 05:01:54;;;;;;;;;9.00;4.00;;;;;12.59;69.16;100918.19;5053102;28;45429;-75
2022/02/17 05:04:20;;;;;;;;;11.00;3.50;;;;;12.54;69.01;100933.38;5049272;28;45414;-73
2022/02/17 05:06:45;;;;;;;;;10.25;5.00;;;;;12.50;68.41;100932.66;5044651;28;45420;-74
2022/02/17 05:09:10;;;;;;;;;8.50;3.00;;;;;12.47;68.65;100945.13;5037397;28;45521;-74
2022/02/17 05:11:36;;;;;;;;;4.00;2.25;;;;;12.44;68.39;100937.38;5052272;28;45432;-76
2022/02/17 05:14:01;;;;;;;;;7.25;4.25;;;;;12.41;68.17;100953.34;5041555;28;45479;-76
2022/02/17 05:16:27;;;;;;;;;5.50;3.00;;;;;12.40;68.17;100951.63;5046204;28;45481;-76
2022/02/17 05:18:53;;;;;;;;;6.00;3.50;;;;;12.38;67.70;100943.81;5042893;28;45471;-77
2022/02/17 05:21:18;;;;;;;;;6.50;3.75;;;;;12.37;67.76;100944.75;5044981;28;46179;-76
2022/02/17 05:23:44;;;;;;;;;11.75;4.75;;;;;12.36;67.69;100947.41;5041354;28;45666;-76
2022/02/17 05:26:10;;;;;;;;;10.25;3.00;;;;;12.34;67.36;100963.31;5043192;28;45562;-76
2022/02/17 05:28:35;;;;;;;;;5.25;3.75;;;;;12.32;67.79;100969.56;5041019;28;45696;-76
2022/02/17 05:31:00;;;;;;;;;6.25;3.00;;;;;12.27;67.42;100989.09;5041598;28;46198;-76
2022/02/17 05:33:26;;;;;;;;;9.00;4.75;;;;;12.28;67.39;100985.53;5040603;28;45458;-75
2022/02/17 05:35:52;;;;;;;;;4.50;3.00;;;;;12.22;66.73;100979.69;5039189;28;45347;-73
2022/02/17 05:38:17;;;;;;;;;9.75;4.00;;;;;12.21;67.12;100993.78;5041989;28;45359;-74
2022/02/17 05:40:42;;;;;;;;;7.75;4.50;;;;;12.19;66.47;100983.31;5049417;28;46028;-74
2022/02/17 05:43:08;;;;;;;;;3.50;2.00;;;;;12.20;67.70;100985.03;5047767;28;45544;-76
2022/02/17 05:45:33;;;;;;;;;9.50;5.25;;;;;12.21;66.48;100993.78;5043086;28;45826;-76
2022/02/17 05:47:59;;;;;;;;;13.75;3.00;;;;;12.21;66.19;100981.44;5029248;28;45615;-76
2022/02/17 05:50:25;;;;;;;;;9.50;5.00;;;;;12.21;66.18;100981.44;5048312;28;46086;-76
2022/02/17 05:52:50;;;;;;;;;9.00;4.75;;;;;12.23;66.60;100990.16;5052426;28;45765;-76
2022/02/17 05:55:17;;;;;;;;;12.25;5.50;;;;;12.26;66.15;100999.69;5036994;28;45449;-76
2022/02/17 05:57:43;;;;;;;;;11.75;4.25;;;;;12.23;66.03;101000.69;5040396;28;45462;-77
2022/02/17 06:00:10;;;;;;;;;8.50;3.50;;;;;12.23;66.10;101018.28;5035579;28;46087;-76
2022/02/17 06:02:35;;;;;;;;;6.50;4.75;;;;;12.20;65.85;101011.38;5040755;28;45829;-76
2022/02/17 06:05:00;;;;;;;;;7.25;4.50;;;;;12.16;65.20;101008.94;5046135;28;45515;-77
2022/02/17 06:07:26;;;;;;;;;7.00;4.00;;;;;12.12;65.97;101010.03;5038304;28;45361;-77
2022/02/17 06:09:51;;;;;;;;;10.00;6.25;;;;;12.08;66.35;101005.81;5040501;28;46010;-76
2022/02/17 06:12:16;;;;;;;;;11.75;5.25;;;;;12.03;66.02;101016.56;5041275;28;45478;-74
2022/02/17 06:14:42;;;;;;;;;8.25;3.50;;;;;11.99;66.54;101025.50;5047056;28;45457;-74
2022/02/17 06:17:07;;;;;;;;;8.50;4.00;;;;;11.96;66.16;101020.38;5050491;28;45389;-74
2022/02/17 06:19:32;;;;;;;;;12.00;6.75;;;;;11.93;66.44;101028.41;5040498;28;46006;-74
2022/02/17 06:21:58;;;;;;;;;9.00;5.50;;;;;11.90;67.00;101025.91;5039899;28;45946;-74
2022/02/17 06:24:23;;;;;;;;;7.75;6.75;;;;;11.85;67.19;101028.75;5043656;28;45391;-74
2022/02/17 06:26:49;;;;;;;;;16.00;4.75;;;;;11.85;66.94;101025.25;5043880;28;45473;-75
2022/02/17 06:29:14;;;;;;;;;9.50;6.00;;;;;11.87;67.75;101033.97;5040800;28;45492;-74
2022/02/17 06:31:40;;;;;;;;;6.75;3.00;;;;;11.89;67.35;101042.63;5047966;28;45452;-75
2022/02/17 06:34:05;;;;;;;;;8.50;5.25;;;;;11.89;67.78;101040.84;5041651;28;47493;-77
2022/02/17 06:36:30;;;;;;;;;9.00;7.50;;;;;11.91;67.82;101031.13;5044452;28;47238;-75
2022/02/17 06:38:56;;;;;;;;;6.50;4.50;;;;;11.94;68.00;101054.66;5040672;28;45909;-74
2022/02/17 06:41:23;;;;;;;;;9.50;5.75;;;;;11.98;68.19;101065.94;5038698;28;45296;-75
2022/02/17 06:43:49;;;;;;;;;11.50;6.25;;;;;11.98;68.23;101076.47;5045326;28;45316;-74
2022/02/17 06:46:15;;;;;;;;;8.75;4.75;;;;;12.00;68.60;101079.88;5043294;28;45399;-74
2022/02/17 06:48:40;;;;;;;;;11.25;7.25;;;;;12.04;68.50;101099.06;5045898;28;45884;-76
2022/02/17 06:51:06;;;;;;;;;10.25;5.00;;;;;12.07;68.54;101093.69;5038954;28;45607;-76
2022/02/17 06:53:32;;;;;;;;;16.25;10.00;;;;;12.08;68.21;101080.44;5040021;28;45399;-76
2022/02/17 06:55:57;;;;;;;;;27.75;11.75;;;;;12.04;68.37;101092.00;5047220;28;45677;-75
2022/02/17 06:58:23;;;;;;;;;18.75;14.50;;;;;12.03;68.16;101100.84;5042844;28;45481;-75
2022/02/17 07:00:49;;;;;;;;;30.00;25.33;;;;;12.00;67.95;101093.06;5038733;28;53726;-75
2022/02/17 07:03:14;;;;;;;;;29.00;24.25;;;;;11.99;68.00;101099.25;5035155;28;45451;-76
2022/02/17 07:05:40;;;;;;;;;20.25;18.00;;;;;11.97;67.62;101098.47;5046077;28;45562;-76
2022/02/17 07:08:05;;;;;;;;;18.25;15.00;;;;;11.95;67.97;101101.19;5031794;28;45895;-76
2022/02/17 07:13:14;;;;;;;;;19.25;10.25;;;;;11.92;67.89;101119.75;5040415;28;45392;-76
2022/02/17 07:15:40;;;;;;;;;34.25;26.75;;;;;11.91;68.03;101114.56;5030314;28;46024;-76
2022/02/17 07:18:07;;;;;;;;;18.75;9.50;;;;;11.91;67.64;101122.44;5025477;28;46551;-77
2022/02/17 07:20:35;;;;;;;;;71.00;52.25;;;;;11.92;67.59;101127.66;5031839;28;48588;-76
2022/02/17 07:23:02;;;;;;;;;20.25;12.50;;;;;11.96;67.56;101144.19;5020858;28;45503;-77
2022/02/17 07:25:28;;;;;;;;;18.25;11.00;;;;;12.00;67.28;101130.78;5042093;28;45491;-77
2022/02/17 07:27:53;;;;;;;;;18.25;13.00;;;;;12.04;67.30;101126.25;5035433;28;46352;-77
2022/02/17 07:30:19;;;;;;;;;14.75;11.25;;;;;12.10;67.32;101136.53;5034123;28;45358;-77
2022/02/17 07:32:44;;;;;;;;;14.75;6.00;;;;;12.17;67.17;101155.59;5018280;28;45765;-77
2022/02/17 07:35:10;;;;;;;;;17.00;10.00;;;;;12.27;66.93;101154.28;5020162;28;45303;-75
2022/02/17 07:37:36;;;;;;;;;15.00;7.00;;;;;12.38;66.98;101152.03;5054733;28;46298;-75
2022/02/17 07:40:03;;;;;;;;;14.75;7.75;;;;;12.47;66.66;101170.03;5058304;28;45439;-75
2022/02/17 07:42:29;;;;;;;;;11.50;8.25;;;;;12.64;66.30;101171.09;5040410;28;45422;-75
2022/02/17 07:44:56;;;;;;;;;17.75;10.50;;;;;12.75;65.96;101180.25;5055166;28;45471;-75
2022/02/17 07:47:25;;;;;;;;;15.00;8.00;;;;;12.85;66.04;101172.78;5057568;28;45605;-75
2022/02/17 07:49:54;;;;;;;;;18.25;11.50;;;;;12.92;65.80;101186.53;5066058;28;45582;-75
2022/02/17 07:52:20;;;;;;;;;18.00;8.50;;;;;12.97;65.71;101201.22;5058815;28;45452;-75
2022/02/17 07:54:45;;;;;;;;;17.00;6.00;;;;;13.01;65.37;101202.81;5053442;28;45555;-75
2022/02/17 07:57:11;;;;;;;;;16.25;10.75;;;;;12.98;65.59;101200.28;5054296;28;45797;-75
2022/02/17 07:59:36;;;;;;;;;12.75;9.00;;;;;12.98;66.08;101199.44;5053353;28;54846;-76
2022/02/17 08:02:01;;;;;;;;;10.75;5.00;;;;;13.00;65.95;101187.06;5050901;28;45420;-76
2022/02/17 08:04:27;;;;;;;;;9.75;6.00;;;;;13.02;65.97;101201.88;5046111;28;45454;-76
2022/02/17 08:06:52;;;;;;;;;9.50;8.25;;;;;13.02;65.48;101190.47;5043628;28;45910;-75
2022/02/17 08:09:17;;;;;;;;;13.50;4.75;;;;;13.05;65.71;101195.63;5049142;28;45467;-76
2022/02/17 08:11:43;;;;;;;;;8.25;6.50;;;;;13.05;66.10;101204.38;5035600;28;45479;-76
2022/02/17 08:14:08;;;;;;;;;17.50;7.25;;;;;13.19;65.98;101193.16;5042765;28;45454;-76
2022/02/17 08:16:34;;;;;;;;;16.25;6.75;;;;;13.63;65.38;101189.41;5049397;28;45372;-76
2022/02/17 08:18:59;;;;;;;;;14.00;5.00;;;;;13.91;65.60;101202.13;5049182;28;45285;-75
2022/02/17 08:21:25;;;;;;;;;13.25;6.75;;;;;14.22;64.60;101198.78;5049899;28;45411;-75
2022/02/17 08:23:50;;;;;;;;;19.50;11.75;;;;;15.09;65.19;101207.47;5038716;28;45397;-76
2022/02/17 08:26:16;;;;;;;;;14.50;12.25;;;;;15.54;62.62;101203.22;5034170;28;46305;-76
2022/02/17 08:28:41;;;;;;;;;13.75;11.25;;;;;15.45;61.72;101224.91;5048316;28;45419;-76
2022/02/17 08:31:06;;;;;;;;;17.25;8.00;;;;;15.22;61.97;101232.34;5057849;28;45401;-76
2022/02/17 08:33:32;;;;;;;;;21.50;8.25;;;;;14.94;61.88;101246.22;5054947;28;45426;-76
2022/02/17 08:35:57;;;;;;;;;16.75;9.00;;;;;14.71;62.54;101255.34;5030203;28;48011;-76
2022/02/17 08:38:30;;;;;;;;;12.75;6.25;;;;;14.57;62.69;101261.34;5041279;28;45611;-76
2022/02/17 08:40:55;;;;;;;;;12.75;9.50;;;;;14.47;62.59;101253.94;5045906;28;45518;-78
2022/02/17 08:43:21;;;;;;;;;37.25;23.25;;;;;14.41;62.69;101264.78;5049328;28;45591;-77
2022/02/17 08:45:46;;;;;;;;;24.50;14.75;;;;;14.38;62.85;101257.88;5050121;28;46197;-77
2022/02/17 08:48:12;;;;;;;;;11.50;3.25;;;;;14.40;62.63;101271.03;5040730;28;46986;-78
2022/02/17 08:50:43;;;;;;;;;12.75;9.00;;;;;14.44;63.10;101267.31;5056064;28;45421;-77
2022/02/17 08:53:09;;;;;;;;;17.50;11.50;;;;;14.63;62.27;101265.47;5042681;28;45309;-76
2022/02/17 08:55:34;;;;;;;;;14.50;9.25;;;;;15.31;62.40;101268.91;5049722;28;45415;-77
2022/02/17 08:58:00;;;;;;;;;17.75;9.00;;;;;16.29;61.07;101262.56;5047879;28;45438;-76
2022/02/17 09:00:25;;;;;;;;;12.50;9.00;;;;;16.64;59.78;101274.59;5040822;28;45410;-76
2022/02/17 09:02:50;;;;;;;;;9.25;7.75;;;;;16.83;59.67;101266.41;5056028;28;45317;-76
2022/02/17 09:05:16;;;;;;;;;8.50;6.00;;;;;17.22;59.55;101270.22;5042551;28;46249;-76
2022/02/17 09:07:41;;;;;;;;;16.75;9.25;;;;;17.57;58.03;101269.81;5047534;28;45449;-76
2022/02/17 09:10:07;;;;;;;;;13.50;7.25;;;;;17.31;57.95;101271.47;5048501;28;49652;-76
2022/02/17 09:12:35;;;;;;;;;13.75;8.50;;;;;16.94;58.48;101271.06;5044527;28;45443;-76
2022/02/17 09:15:01;;;;;;;;;8.50;7.00;;;;;16.59;57.44;101276.66;5048741;28;46140;-76
2022/02/17 09:17:27;;;;;;;;;19.00;15.75;;;;;16.29;57.87;101274.03;5052838;28;45454;-76
2022/02/17 09:19:52;;;;;;;;;16.00;10.75;;;;;15.96;57.88;101271.50;5053776;28;45423;-76
2022/02/17 09:22:17;;;;;;;;;14.00;6.75;;;;;15.60;58.65;101266.44;5051947;28;45592;-75
2022/02/17 09:24:43;;;;;;;;;9.75;5.75;;;;;15.34;58.69;101281.13;5052367;28;45911;-76
2022/02/17 09:27:08;;;;;;;;;14.25;9.50;;;;;15.20;58.72;101292.47;5045943;28;47551;-76
2022/02/17 09:29:34;;;;;;;;;19.50;13.50;;;;;15.07;59.16;101296.69;5040755;28;45296;-76
2022/02/17 09:31:59;;;;;;;;;17.75;13.25;;;;;15.00;58.93;101290.03;5049540;28;45368;-76
2022/02/17 09:34:26;;;;;;;;;14.25;8.00;;;;;14.93;59.42;101299.19;5047605;28;45541;-76
2022/02/17 09:36:51;;;;;;;;;43.25;34.75;;;;;14.82;59.55;101307.69;5049811;28;45351;-76
2022/02/17 09:39:17;;;;;;;;;9.75;9.50;;;;;14.70;59.79;101319.75;5040319;28;45336;-75
2022/02/17 09:41:43;;;;;;;;;9.75;7.25;;;;;14.60;59.88;101326.44;5055374;28;45563;-76
2022/02/17 09:44:10;;;;;;;;;12.50;5.50;;;;;14.55;59.94;101326.69;5061830;28;45358;-76
2022/02/17 09:46:36;;;;;;;;;11.75;8.25;;;;;14.48;59.63;101324.44;5051292;28;45772;-76
2022/02/17 09:49:03;;;;;;;;;10.75;5.75;;;;;14.46;59.98;101318.31;5055786;28;45400;-76
2022/02/17 09:51:30;;;;;;;;;23.25;16.50;;;;;14.46;60.13;101336.81;5050893;28;45523;-77
2022/02/17 09:53:56;;;;;;;;;15.00;11.50;;;;;14.47;60.29;101338.56;5048515;28;46255;-76
2022/02/17 09:56:25;;;;;;;;;12.75;11.75;;;;;14.44;59.07;101323.69;5047030;28;45391;-74
2022/02/17 09:58:54;;;;;;;;;15.75;9.00;;;;;14.39;60.29;101344.22;5047081;28;45479;-76
2022/02/17 10:01:23;;;;;;;;;21.25;10.25;;;;;14.41;59.80;101346.78;5052174;28;45591;-76
2022/02/17 10:03:48;;;;;;;;;11.50;8.00;;;;;14.90;59.88;101341.72;5046990;28;46405;-75
2022/02/17 10:06:15;;;;;;;;;19.50;12.50;;;;;16.36;60.38;101332.88;5063208;28;45860;-75
2022/02/17 10:08:41;;;;;;;;;20.75;9.50;;;;;18.25;58.08;101345.16;5043452;28;45767;-75
2022/02/17 10:11:09;;;;;;;;;13.75;7.00;;;;;19.17;55.77;101344.34;5066009;28;45315;-74
2022/02/17 10:13:35;;;;;;;;;16.25;8.75;;;;;19.79;55.83;101344.41;5046420;28;46165;-75
2022/02/17 10:16:01;;;;;;;;;14.25;7.50;;;;;20.26;53.38;101347.25;5055740;28;45295;-76
2022/02/17 10:18:30;;;;;;;;;12.50;6.75;;;;;20.40;51.37;101355.06;5050698;28;45598;-75
2022/02/17 10:21:12;;;;;;;;;12.75;6.50;;;;;19.67;52.13;101349.75;5050674;28;45489;-74
2022/02/17 10:23:42;;;;;;;;;11.00;7.25;;;;;19.08;51.57;101357.44;5045630;28;46648;-76
2022/02/17 10:26:13;;;;;;;;;10.75;5.00;;;;;18.66;51.83;101349.56;5054518;28;45347;-75
2022/02/17 10:28:44;;;;;;;;;12.25;6.50;;;;;18.44;52.62;101365.25;5049506;28;45497;-75
2022/02/17 10:31:36;;;;;;;;;15.25;11.50;;;;;18.11;52.55;101363.81;5047235;28;45586;-76
2022/02/17 10:34:04;;;;;;;;;11.50;5.50;;;;;17.93;53.25;101357.88;5055125;28;45604;-77
2022/02/17 10:36:42;;;;;;;;;8.50;6.00;;;;;17.62;53.58;101372.22;5063790;28;47562;-76
2022/02/17 10:39:20;;;;;;;;;27.75;19.75;;;;;17.44;53.46;101368.06;5046930;28;45240;-76
2022/02/17 10:41:59;;;;;;;;;13.50;8.00;;;;;17.54;52.97;101368.31;5051836;28;45343;-75
2022/02/17 10:44:37;;;;;;;;;19.50;9.00;;;;;17.58;53.30;101373.34;5051926;28;46376;-76
2022/02/17 10:47:13;;;;;;;;;9.25;7.50;;;;;17.60;53.13;101381.25;5032191;28;45625;-75
2022/02/17 10:49:46;;;;;;;;;8.50;6.50;;;;;17.47;52.58;101371.38;5054902;28;45387;-75
2022/02/17 10:52:14;;;;;;;;;14.00;11.50;;;;;17.30;52.92;101373.34;5047315;28;45303;-75
2022/02/17 10:54:39;;;;;;;;;8.25;6.00;;;;;17.28;52.84;101378.78;5050197;28;45498;-75
2022/02/17 10:57:06;;;;;;;;;9.00;6.25;;;;;17.44;53.06;101397.28;5052351;28;45410;-76
2022/02/17 11:02:21;;;;;;;;;13.50;8.25;;;;;17.69;51.98;101412.56;5038168;28;45478;-77
2022/02/17 11:04:47;;;;;;;;;17.00;11.00;;;;;17.71;52.14;101406.22;5042527;28;47148;-75
2022/02/17 11:07:15;;;;;;;;;5.25;4.75;;;;;17.87;52.12;101390.19;5047977;28;45592;-75
2022/02/17 11:09:41;;;;;;;;;7.00;4.50;;;;;18.20;52.18;101405.78;5051602;28;45445;-75
2022/02/17 11:12:07;;;;;;;;;11.50;10.50;;;;;18.52;51.76;101410.84;5052256;28;45498;-74
2022/02/17 11:14:37;;;;;;;;;7.75;5.00;;;;;18.83;51.60;101407.03;5043440;28;46088;-76
2022/02/17 11:17:04;;;;;;;;;7.50;6.75;;;;;18.64;50.31;101412.72;5046985;28;46711;-76
2022/02/17 11:19:29;;;;;;;;;20.75;11.50;;;;;18.57;50.86;101415.84;5049995;28;46769;-76
2022/02/17 11:21:55;;;;;;;;;30.75;21.25;;;;;18.49;50.15;101417.22;5058937;28;46545;-73
2022/02/17 11:24:20;;;;;;;;;20.25;15.75;;;;;18.33;50.16;101416.53;5061229;28;45927;-74